Time;durP1;ratioP1;P1;durP2;ratioP2;P2;SDS_P1;SDS_P2;PMS_P1;PMS_P2;Temp;Humidity;BMP_temperature;BMP_pressure;BME280_temperature;BME280_humidity;BME280_pressure;Samples;Min_cycle;Max_cycle;Signal;HPM_P1;HPM_P2
2023/01/08 00:01:21;;;;;;;37.73;18.87;;;;;;;8.19;62.77;95142.25;5130560;27;20189;-43
2023/01/08 00:03:48;;;;;;;32.47;17.33;;;;;;;8.18;62.82;95145.75;5130348;27;20180;-46
2023/01/08 00:06:17;;;;;;;29.47;16.93;;;;;;;8.14;62.77;95134.97;5130389;27;20191;-45
2023/01/08 00:08:44;;;;;;;33.13;18.47;;;;;;;8.12;62.61;95133.44;5130210;27;20196;-44
2023/01/08 00:11:13;;;;;;;29.63;17.70;;;;;;;8.14;62.78;95142.59;5129628;27;20192;-47
2023/01/08 00:13:40;;;;;;;32.17;18.50;;;;;;;8.10;62.84;95135.28;5129695;27;20188;-46
2023/01/08 00:16:09;;;;;;;32.83;18.63;;;;;;;8.12;62.78;95134.28;5129689;27;20667;-45
2023/01/08 00:18:36;;;;;;;32.00;17.77;;;;;;;8.00;62.99;95119.88;5130261;27;20181;-44
2023/01/08 00:21:05;;;;;;;31.73;18.40;;;;;;;8.09;62.80;95129.41;5130202;28;20188;-44
2023/01/08 00:23:32;;;;;;;34.03;18.97;;;;;;;8.09;62.99;95131.13;5129637;28;20650;-43
2023/01/08 00:26:01;;;;;;;28.83;18.20;;;;;;;8.08;63.04;95129.53;5130174;28;20180;-43
2023/01/08 00:28:29;;;;;;;36.47;19.20;;;;;;;8.04;62.98;95118.72;5129982;28;20694;-45
2023/01/08 00:30:56;;;;;;;29.63;18.10;;;;;;;8.04;63.03;95123.84;5130373;28;20664;-44
2023/01/08 00:33:23;;;;;;;29.93;17.67;;;;;;;8.04;63.05;95131.47;5130025;28;20208;-44
2023/01/08 00:35:50;;;;;;;34.70;20.40;;;;;;;7.88;63.00;95111.38;5129915;28;20199;-44
2023/01/08 00:38:17;;;;;;;34.10;18.40;;;;;;;8.02;63.17;95130.75;5129560;28;20583;-44
2023/01/08 00:40:44;;;;;;;30.97;18.17;;;;;;;8.01;63.11;95131.69;5129026;28;20586;-44
2023/01/08 00:43:10;;;;;;;34.53;19.17;;;;;;;7.95;63.08;95130.41;5132851;27;20218;-44
2023/01/08 00:45:38;;;;;;;30.80;19.93;;;;;;;7.99;63.19;95136.09;5134135;27;20204;-48
2023/01/08 00:48:06;;;;;;;29.57;18.03;;;;;;;7.92;63.29;95120.44;5134255;27;20196;-49
2023/01/08 00:50:33;;;;;;;28.33;17.90;;;;;;;7.97;63.20;95131.09;5133640;27;20741;-52
2023/01/08 00:52:59;;;;;;;30.43;18.10;;;;;;;7.96;63.21;95129.47;5133594;27;20223;-45
2023/01/08 00:55:26;;;;;;;27.80;17.73;;;;;;;7.92;63.23;95133.16;5133696;27;20193;-48
2023/01/08 00:57:53;;;;;;;33.40;18.67;;;;;;;7.95;62.97;95132.94;5133749;27;20184;-47
2023/01/08 01:00:20;;;;;;;34.50;19.53;;;;;;;7.91;63.15;95133.28;5133776;27;20188;-51
2023/01/08 01:02:48;;;;;;;30.83;18.53;;;;;;;7.92;63.25;95137.44;5121047;27;20193;-49
2023/01/08 01:05:16;;;;;;;31.23;18.23;;;;;;;7.90;63.22;95141.81;5113290;28;20561;-46
2023/01/08 01:07:43;;;;;;;26.80;17.03;;;;;;;7.89;63.33;95138.47;5129929;27;20339;-45
2023/01/08 01:10:11;;;;;;;31.70;18.53;;;;;;;7.89;63.11;95137.66;5132825;27;20184;-44
2023/01/08 01:12:38;;;;;;;32.40;19.20;;;;;;;7.77;63.26;95122.34;5132980;27;20200;-49
2023/01/08 01:15:06;;;;;;;29.90;17.93;;;;;;;7.85;63.24;95129.41;5133484;27;20200;-46
2023/01/08 01:17:33;;;;;;;30.27;17.37;;;;;;;7.73;63.16;95120.94;5133384;27;20188;-50
2023/01/08 01:20:02;;;;;;;32.57;18.43;;;;;;;7.82;63.25;95127.13;5133186;27;20564;-44
2023/01/08 01:22:29;;;;;;;27.73;17.00;;;;;;;7.82;63.28;95126.31;5132915;27;20180;-47
2023/01/08 01:24:55;;;;;;;26.97;16.67;;;;;;;7.80;63.39;95123.84;5133098;27;20286;-44
2023/01/08 01:27:22;;;;;;;27.93;17.57;;;;;;;7.78;63.08;95131.63;5132783;27;20257;-49
2023/01/08 01:29:49;;;;;;;29.63;17.73;;;;;;;7.78;63.13;95129.06;5133104;27;20215;-52
2023/01/08 01:32:16;;;;;;;23.27;15.47;;;;;;;7.76;63.15;95130.91;5132894;27;20216;-55
2023/01/08 01:34:43;;;;;;;33.17;18.83;;;;;;;7.75;63.10;95128.47;5133304;27;20270;-50
2023/01/08 01:37:13;;;;;;;27.73;18.17;;;;;;;7.74;63.08;95126.84;5133890;27;20192;-49
2023/01/08 01:39:42;;;;;;;27.33;16.10;;;;;;;7.73;63.28;95126.03;5135142;27;20334;-50
2023/01/08 01:42:38;;;;;;;27.20;16.87;;;;;;;7.71;63.14;95117.69;5134197;27;20198;-53
2023/01/08 01:45:00;;;;;;;28.57;17.20;;;;;;;7.71;63.24;95121.97;5133572;27;20188;-50
2023/01/08 01:47:30;;;;;;;23.00;15.60;;;;;;;7.70;63.30;95123.72;5132835;27;20265;-46
2023/01/08 01:50:02;;;;;;;24.57;15.70;;;;;;;7.67;63.22;95111.19;5133192;27;20644;-47
2023/01/08 01:52:36;;;;;;;26.20;15.93;;;;;;;7.66;63.29;95119.75;5132421;27;20220;-42
2023/01/08 01:55:04;;;;;;;26.20;15.10;;;;;;;7.54;63.14;95095.97;5114871;27;20244;-45
2023/01/08 01:57:32;;;;;;;23.50;14.53;;;;;;;7.64;63.26;95111.44;5132352;27;20183;-42
2023/01/08 02:00:03;;;;;;;28.57;15.53;;;;;;;7.63;63.39;95119.16;5132809;27;20260;-45
2023/01/08 02:02:31;;;;;;;21.93;13.57;;;;;;;7.61;63.08;95111.63;5132672;27;20266;-44
2023/01/08 02:04:58;;;;;;;28.43;15.20;;;;;;;7.60;63.26;95104.94;5132805;27;20197;-44
2023/01/08 02:07:29;;;;;;;27.00;14.93;;;;;;;7.58;63.29;95111.84;5132143;27;20253;-45
2023/01/08 02:10:07;;;;;;;27.03;16.47;;;;;;;7.58;63.38;95109.31;5132097;27;20620;-46
2023/01/08 02:12:39;;;;;;;24.33;14.30;;;;;;;7.57;63.29;95104.34;5131964;27;20280;-45
2023/01/08 02:15:13;;;;;;;22.90;14.07;;;;;;;7.55;63.23;95104.41;5131983;27;20245;-43
2023/01/08 02:17:53;;;;;;;25.30;15.53;;;;;;;7.52;63.26;95100.38;5132263;27;20210;-47
2023/01/08 02:20:26;;;;;;;22.77;13.57;;;;;;;7.49;63.48;95100.59;5131845;27;20192;-44
2023/01/08 02:23:14;;;;;;;23.47;14.90;;;;;;;7.49;63.35;95092.16;5131681;27;20192;-47
2023/01/08 02:26:00;;;;;;;22.73;13.97;;;;;;;7.45;63.42;95093.28;5131594;27;20223;-43
2023/01/08 02:28:29;;;;;;;24.17;13.57;;;;;;;7.48;63.24;95095.63;5131701;27;20184;-46
2023/01/08 02:30:56;;;;;;;25.90;14.70;;;;;;;7.47;63.41;95099.91;5132011;27;20802;-44
2023/01/08 02:33:23;;;;;;;22.97;14.60;;;;;;;7.47;63.36;95099.06;5131343;27;20219;-45
2023/01/08 02:36:11;;;;;;;21.57;13.63;;;;;;;7.45;63.28;95093.28;5131675;27;20192;-44
2023/01/08 02:38:42;;;;;;;26.30;13.73;;;;;;;7.43;63.37;95090.84;5131979;27;20199;-44
2023/01/08 02:41:12;;;;;;;24.80;14.07;;;;;;;7.43;63.41;95090.84;5131370;27;20220;-45
2023/01/08 02:43:45;;;;;;;21.57;14.60;;;;;;;7.41;63.40;95084.25;5131969;27;20188;-44
2023/01/08 02:46:16;;;;;;;21.40;13.27;;;;;;;7.40;63.43;95085.97;5130926;27;20192;-42
2023/01/08 02:48:47;;;;;;;21.17;13.40;;;;;;;6.90;63.32;95001.34;5131322;27;20681;-42
2023/01/08 02:51:20;;;;;;;21.77;13.47;;;;;;;7.39;63.34;95073.38;5131571;27;20189;-44
2023/01/08 02:53:50;;;;;;;23.23;13.70;;;;;;;6.90;63.41;95003.88;5131808;27;20227;-47
2023/01/08 02:56:23;;;;;;;23.90;13.53;;;;;;;7.28;63.40;95057.13;5131170;27;20192;-44
2023/01/08 02:58:52;;;;;;;21.60;13.37;;;;;;;7.35;63.29;95075.31;5131514;27;20188;-44
2023/01/08 03:01:21;;;;;;;22.90;12.57;;;;;;;7.31;63.26;95073.09;5131221;27;20199;-45
2023/01/08 03:03:52;;;;;;;24.33;14.37;;;;;;;7.33;63.24;95079.69;5130591;27;20184;-44
2023/01/08 03:06:21;;;;;;;22.77;13.43;;;;;;;7.29;63.42;95076.53;5130139;27;20187;-45
2023/01/08 03:08:50;;;;;;;18.70;12.80;;;;;;;7.31;63.41;95084.09;5131084;27;20275;-44
2023/01/08 03:11:20;;;;;;;19.27;12.43;;;;;;;7.26;63.30;95074.25;5131473;27;20195;-45
2023/01/08 03:13:54;;;;;;;19.90;12.90;;;;;;;7.29;63.29;95083.38;5131378;27;20220;-45
2023/01/08 03:16:26;;;;;;;23.03;13.07;;;;;;;7.27;63.52;95086.03;5132429;27;20716;-44
2023/01/08 03:19:01;;;;;;;20.63;12.33;;;;;;;7.28;63.45;95082.56;5131081;27;20176;-46
2023/01/08 03:21:28;;;;;;;21.23;13.00;;;;;;;7.26;63.49;95089.50;5130702;27;20610;-45
2023/01/08 03:23:57;;;;;;;22.40;13.03;;;;;;;7.26;63.42;95088.69;5131612;27;20196;-44
2023/01/08 03:26:27;;;;;;;23.93;12.90;;;;;;;7.21;63.45;95086.47;5130348;27;20721;-44
2023/01/08 03:28:56;;;;;;;20.90;12.90;;;;;;;7.24;63.42;95087.97;5131153;27;20188;-44
2023/01/08 03:31:27;;;;;;;21.87;12.20;;;;;;;7.21;63.40;95091.56;5130729;27;20188;-44
2023/01/08 03:33:56;;;;;;;21.20;12.60;;;;;;;7.09;63.42;95071.25;5130504;27;20231;-44
2023/01/08 03:36:27;;;;;;;16.00;11.67;;;;;;;7.22;63.34;95089.81;5130168;27;20253;-44
2023/01/08 03:38:59;;;;;;;18.77;12.97;;;;;;;7.12;63.29;95081.19;5130627;27;20284;-43
2023/01/08 03:41:31;;;;;;;16.27;11.63;;;;;;;7.18;63.27;95089.22;5129802;27;20284;-43
2023/01/08 03:43:58;;;;;;;17.13;11.70;;;;;;;7.17;63.44;95084.25;5130390;27;20225;-50
2023/01/08 03:46:29;;;;;;;20.07;11.47;;;;;;;7.17;63.24;95079.16;5130281;27;20188;-45
2023/01/08 03:48:58;;;;;;;17.13;12.00;;;;;;;7.16;63.39;95085.16;5130530;27;20241;-45
2023/01/08 03:51:25;;;;;;;19.97;10.40;;;;;;;7.04;63.25;95069.84;5129996;27;20659;-49
2023/01/08 03:53:57;;;;;;;21.00;11.27;;;;;;;7.14;63.20;95082.72;5129895;27;20230;-49
2023/01/08 03:56:24;;;;;;;18.10;11.17;;;;;;;7.13;63.48;95077.75;5130015;27;20246;-44
2023/01/08 03:58:52;;;;;;;17.20;10.30;;;;;;;7.09;63.66;95071.25;5130562;27;20271;-44
2023/01/08 04:01:19;;;;;;;19.27;11.00;;;;;;;7.11;63.33;95085.47;5129485;27;20603;-46
2023/01/08 04:03:46;;;;;;;19.77;11.67;;;;;;;7.11;63.32;95082.13;5130195;27;20219;-45
2023/01/08 04:06:13;;;;;;;23.00;12.20;;;;;;;7.09;63.46;95078.88;5129878;27;20224;-43
2023/01/08 04:08:39;;;;;;;14.87;10.20;;;;;;;6.96;63.41;95066.22;5129786;27;20538;-44
2023/01/08 04:11:06;;;;;;;19.43;11.67;;;;;;;7.02;63.22;95070.84;5130075;27;20207;-44
2023/01/08 04:13:33;;;;;;;19.30;11.33;;;;;;;7.07;63.28;95083.25;5130128;27;20212;-45
2023/01/08 04:16:01;;;;;;;19.17;10.43;;;;;;;7.03;63.37;95077.56;5129675;27;20271;-44
2023/01/08 04:18:28;;;;;;;15.40;10.90;;;;;;;7.06;63.55;95081.63;5129598;27;20183;-44
2023/01/08 04:20:55;;;;;;;16.53;10.43;;;;;;;7.04;63.49;95077.47;5130309;27;20188;-44
2023/01/08 04:23:21;;;;;;;17.83;10.83;;;;;;;7.03;63.49;95080.91;5129770;28;20196;-44
2023/01/08 04:25:48;;;;;;;19.60;10.50;;;;;;;7.01;63.44;95082.75;5130244;28;20199;-46
2023/01/08 04:28:15;;;;;;;17.17;10.23;;;;;;;7.00;63.32;95086.22;5129748;28;20237;-44
2023/01/08 04:30:42;;;;;;;16.17;10.37;;;;;;;7.01;63.45;95084.50;5128164;28;20327;-43
2023/01/08 04:33:10;;;;;;;17.33;10.60;;;;;;;6.99;63.34;95084.63;5129420;28;20220;-44
2023/01/08 04:35:37;;;;;;;15.23;10.80;;;;;;;6.97;63.40;95081.34;5130376;28;20252;-43
2023/01/08 04:38:04;;;;;;;15.07;10.27;;;;;;;6.94;63.50;95075.66;5129445;28;20682;-43
2023/01/08 04:40:32;;;;;;;13.80;8.83;;;;;;;6.97;63.50;95080.53;5129075;28;20769;-45
2023/01/08 04:42:59;;;;;;;13.63;9.20;;;;;;;6.96;63.31;95091.63;5129378;28;20188;-43
2023/01/08 04:45:26;;;;;;;18.13;10.10;;;;;;;6.95;63.33;95083.19;5129881;28;20668;-44
2023/01/08 04:47:56;;;;;;;16.17;9.60;;;;;;;6.94;63.49;95085.84;5129771;28;20640;-42
2023/01/08 04:50:24;;;;;;;15.53;10.73;;;;;;;6.94;63.42;95083.28;5129289;28;20188;-46
2023/01/08 04:52:51;;;;;;;14.87;9.70;;;;;;;6.93;63.30;95089.31;5129825;28;20180;-43
2023/01/08 04:55:19;;;;;;;13.63;8.67;;;;;;;6.78;63.48;95064.03;5129340;28;20682;-46
2023/01/08 04:57:45;;;;;;;12.30;8.27;;;;;;;6.91;63.43;95089.41;5129849;28;20612;-43
2023/01/08 05:00:14;;;;;;;16.30;9.13;;;;;;;6.91;63.46;95091.13;5129153;28;20176;-43
2023/01/08 05:02:40;;;;;;;13.50;9.20;;;;;;;6.74;63.42;95061.81;5128368;28;20188;-45
2023/01/08 05:05:08;;;;;;;13.37;9.27;;;;;;;6.89;63.47;95096.31;5129397;28;20245;-44
2023/01/08 05:07:36;;;;;;;13.40;9.10;;;;;;;6.89;63.50;95098.06;5129466;28;20704;-45
2023/01/08 05:10:03;;;;;;;15.23;9.80;;;;;;;6.87;63.48;95100.72;5129669;28;20193;-43
2023/01/08 05:12:29;;;;;;;15.43;9.43;;;;;;;6.86;63.40;95101.59;5129161;28;20187;-44
2023/01/08 05:14:56;;;;;;;12.43;8.87;;;;;;;6.86;63.40;95095.72;5129258;28;20331;-46
2023/01/08 05:17:23;;;;;;;17.00;8.53;;;;;;;6.85;63.53;95096.63;5129665;28;20188;-43
2023/01/08 05:19:50;;;;;;;16.10;8.67;;;;;;;6.77;63.45;95079.38;5129053;28;20176;-44
2023/01/08 05:22:16;;;;;;;11.70;8.40;;;;;;;6.84;63.36;95097.56;5129545;28;20192;-45
2023/01/08 05:24:45;;;;;;;15.97;8.80;;;;;;;6.83;63.63;95093.41;5129319;28;20622;-45
2023/01/08 05:27:11;;;;;;;15.30;9.77;;;;;;;6.82;63.54;95090.03;5129152;27;20181;-43
2023/01/08 05:29:38;;;;;;;12.83;9.03;;;;;;;6.78;63.56;95086.09;5132348;27;20199;-45
2023/01/08 05:32:06;;;;;;;14.97;8.10;;;;;;;6.82;63.24;95096.84;5132937;27;20191;-44
2023/01/08 05:34:33;;;;;;;12.80;9.50;;;;;;;6.79;63.48;95091.06;5132961;27;20231;-44
2023/01/08 05:37:00;;;;;;;14.47;9.27;;;;;;;6.79;63.43;95095.34;5132857;27;20181;-49
2023/01/08 05:39:27;;;;;;;13.23;9.20;;;;;;;6.79;63.41;95095.34;5133074;27;20668;-45
2023/01/08 05:41:55;;;;;;;14.00;8.87;;;;;;;6.77;63.45;95097.97;5133387;27;20185;-48
2023/01/08 05:44:22;;;;;;;16.23;8.93;;;;;;;6.76;63.45;95098.06;5132665;27;20585;-44
2023/01/08 05:46:48;;;;;;;14.87;9.07;;;;;;;6.26;63.43;95018.47;5132920;27;20697;-44
2023/01/08 05:49:16;;;;;;;13.50;9.13;;;;;;;6.76;63.31;95103.16;5132440;27;20184;-51
2023/01/08 05:51:43;;;;;;;13.57;8.67;;;;;;;6.76;63.31;95101.44;5132639;27;20612;-43
2023/01/08 05:54:10;;;;;;;12.13;8.93;;;;;;;6.75;63.46;95099.81;5132596;27;20204;-48
2023/01/08 05:56:37;;;;;;;14.50;9.33;;;;;;;6.75;63.45;95097.28;5132677;27;20196;-48
2023/01/08 05:59:05;;;;;;;13.90;8.53;;;;;;;6.76;63.43;95098.88;5133003;27;20241;-44
2023/01/08 06:01:33;;;;;;;17.53;9.00;;;;;;;6.60;63.45;95082.25;5133677;27;20199;-46
2023/01/08 06:03:59;;;;;;;11.90;8.57;;;;;;;6.75;63.29;95102.34;5136275;27;20612;-46
2023/01/08 06:06:26;;;;;;;12.47;8.40;;;;;;;5.83;63.27;94954.50;5134286;27;20194;-44
2023/01/08 06:08:53;;;;;;;12.53;8.60;;;;;;;6.73;63.60;95096.53;5132595;27;20214;-43
2023/01/08 06:11:20;;;;;;;10.80;8.77;;;;;;;6.76;63.22;95106.50;5132052;27;20325;-44
2023/01/08 06:13:46;;;;;;;14.53;9.43;;;;;;;6.76;63.41;95111.59;5132214;27;20223;-44
2023/01/08 06:16:16;;;;;;;18.60;9.53;;;;;;;6.76;63.28;95111.59;5133736;27;20237;-43
2023/01/08 06:18:43;;;;;;;15.40;9.33;;;;;;;6.83;63.28;95112.00;5133052;27;20184;-44
2023/01/08 06:21:12;;;;;;;15.50;9.97;;;;;;;6.85;63.20;95112.69;5133689;27;20195;-44
2023/01/08 06:23:38;;;;;;;14.13;10.03;;;;;;;6.88;63.16;95106.59;5132962;27;20192;-44
2023/01/08 06:26:05;;;;;;;16.30;10.27;;;;;;;6.92;63.01;95108.81;5132304;27;20195;-44
2023/01/08 06:28:33;;;;;;;16.07;10.33;;;;;;;7.06;63.01;95109.59;5111821;28;20204;-43
2023/01/08 06:31:00;;;;;;;20.33;11.50;;;;;;;7.27;62.46;95111.47;5119445;27;20192;-45
2023/01/08 06:33:29;;;;;;;18.80;12.20;;;;;;;7.54;61.91;95115.53;5131903;27;20199;-44
2023/01/08 06:36:00;;;;;;;18.77;11.47;;;;;;;7.86;61.56;95117.50;5132440;27;20184;-44
2023/01/08 06:38:26;;;;;;;19.97;12.10;;;;;;;8.20;61.29;95119.25;5131887;27;20203;-43
2023/01/08 06:40:53;;;;;;;17.60;12.03;;;;;;;8.58;61.17;95119.88;5130620;27;20220;-45
2023/01/08 06:43:21;;;;;;;22.37;13.17;;;;;;;8.98;61.03;95125.31;5131636;27;20196;-44
2023/01/08 06:45:53;;;;;;;21.10;13.20;;;;;;;9.40;60.77;95133.16;5131277;27;20690;-47
2023/01/08 06:48:20;;;;;;;18.20;12.53;;;;;;;9.86;60.67;95135.47;5131660;27;20532;-44
2023/01/08 06:50:48;;;;;;;25.93;12.77;;;;;;;10.30;60.57;95134.44;5131759;27;20192;-45
2023/01/08 06:53:15;;;;;;;12.63;8.40;;;;;;;11.09;92.80;95127.94;5132938;27;20656;-45
2023/01/08 06:55:41;;;;;;;13.30;8.70;;;;;;;11.86;90.71;95132.44;5131787;27;20758;-45
2023/01/08 06:58:11;;;;;;;17.63;10.53;;;;;;;12.41;86.17;95124.97;5132591;27;20184;-45
2023/01/08 07:00:38;;;;;;;16.40;10.77;;;;;;;12.85;82.27;95123.50;5131504;27;20188;-57
2023/01/08 07:03:05;;;;;;;19.50;10.70;;;;;;;13.30;78.95;95130.50;5132077;27;20585;-46
2023/01/08 07:05:32;;;;;;;17.87;10.50;;;;;;;13.76;75.99;95128.72;5130862;27;20189;-46
2023/01/08 07:08:00;;;;;;;17.00;10.40;;;;;;;14.15;73.21;95133.56;5131769;27;20193;-46
2023/01/08 07:10:27;;;;;;;17.83;11.53;;;;;;;14.55;70.93;95136.47;5131209;27;20192;-45
2023/01/08 07:12:54;;;;;;;15.57;10.97;;;;;;;14.99;68.66;95138.97;5131759;27;20180;-44
2023/01/08 07:15:20;;;;;;;17.23;11.97;;;;;;;15.34;66.85;95138.94;5119413;27;20224;-45
2023/01/08 07:17:47;;;;;;;19.83;11.27;;;;;;;15.73;64.86;95144.41;5108263;28;20204;-45
2023/01/08 07:20:14;;;;;;;15.63;11.37;;;;;;;16.10;63.24;95149.13;5108161;28;20290;-45
2023/01/08 07:22:41;;;;;;;15.40;11.33;;;;;;;16.45;62.00;95153.19;5108432;28;20682;-45
2023/01/08 07:25:10;;;;;;;30.53;11.73;;;;;;;16.79;60.59;95149.59;5120656;27;20180;-45
2023/01/08 07:27:36;;;;;;;15.50;12.03;;;;;;;17.12;59.47;95145.16;5128174;27;20585;-45
2023/01/08 07:30:04;;;;;;;18.73;13.27;;;;;;;17.43;58.16;95152.16;5128553;27;20245;-51
2023/01/08 07:32:30;;;;;;;18.20;12.13;;;;;;;17.73;57.05;95153.94;5127566;27;20237;-47
2023/01/08 07:34:58;;;;;;;21.13;13.10;;;;;;;17.99;56.16;95153.66;5128930;27;20269;-46
2023/01/08 07:37:25;;;;;;;17.03;13.60;;;;;;;18.22;55.33;95150.25;5130971;27;20204;-46
2023/01/08 07:39:52;;;;;;;19.67;14.10;;;;;;;18.45;54.48;95151.03;5131261;27;20266;-47
2023/01/08 07:42:20;;;;;;;17.47;13.13;;;;;;;18.68;53.74;95158.78;5131271;27;20722;-45
2023/01/08 07:44:47;;;;;;;21.13;13.60;;;;;;;18.91;53.08;95152.75;5131006;27;20184;-47
2023/01/08 07:47:14;;;;;;;18.47;13.50;;;;;;;19.07;52.52;95160.34;5130754;27;20196;-46
2023/01/08 07:49:41;;;;;;;19.13;14.17;;;;;;;19.23;52.11;95160.19;5131105;27;20195;-46
2023/01/08 07:52:08;;;;;;;23.47;15.20;;;;;;;19.31;51.82;95161.91;5133176;27;20180;-48
2023/01/08 07:54:35;;;;;;;21.50;14.33;;;;;;;19.22;51.91;95153.41;5132281;27;20720;-46
2023/01/08 07:57:01;;;;;;;14.63;11.07;;;;;;;19.03;53.68;95144.34;5131041;27;20215;-45
2023/01/08 07:59:30;;;;;;;26.60;8.83;;;;;;;19.07;64.06;95141.41;5129720;27;20185;-48
2023/01/08 08:01:56;;;;;;;14.93;11.07;;;;;;;19.23;63.18;95160.19;5128480;27;20188;-47
2023/01/08 08:04:23;;;;;;;22.03;11.57;;;;;;;19.11;62.18;95155.63;5130170;27;20192;-47
2023/01/08 08:06:50;;;;;;;17.03;11.43;;;;;;;18.89;61.57;95159.91;5130957;27;20184;-45
2023/01/08 08:09:17;;;;;;;25.97;13.23;;;;;;;18.71;60.62;95165.44;5130285;27;20199;-47
2023/01/08 08:11:44;;;;;;;17.93;12.53;;;;;;;18.50;59.49;95161.69;5130194;27;20200;-47
2023/01/08 08:14:11;;;;;;;38.43;14.20;;;;;;;18.26;58.67;95162.69;5130162;27;20212;-46
2023/01/08 08:16:43;;;;;;;15.83;12.27;;;;;;;18.03;58.26;95161.88;5133813;27;20218;-48
2023/01/08 08:19:11;;;;;;;20.63;14.37;;;;;;;17.77;57.66;95160.41;5130952;27;20655;-46
2023/01/08 08:21:38;;;;;;;20.97;13.17;;;;;;;17.54;57.49;95164.72;5131701;27;20188;-47
2023/01/08 08:24:05;;;;;;;19.50;12.83;;;;;;;17.32;57.22;95160.28;5130493;27;20207;-47
2023/01/08 08:26:32;;;;;;;19.63;12.53;;;;;;;17.13;56.95;95158.88;5130512;27;20195;-46
2023/01/08 08:28:59;;;;;;;17.63;13.43;;;;;;;17.10;56.27;95156.63;5130147;27;20639;-45
2023/01/08 08:31:26;;;;;;;15.93;11.97;;;;;;;17.53;54.70;95165.69;5130329;28;20198;-46
2023/01/08 08:33:54;;;;;;;16.07;11.90;;;;;;;17.63;53.66;95163.69;5130245;28;20192;-47
2023/01/08 08:36:20;;;;;;;15.90;11.67;;;;;;;17.40;53.17;95137.78;5130242;28;20203;-45
2023/01/08 08:38:47;;;;;;;21.17;12.80;;;;;;;17.38;52.84;95157.03;5130089;28;20191;-47
2023/01/08 08:41:17;;;;;;;25.20;12.50;;;;;;;17.13;53.23;95161.47;5129814;28;20224;-49
2023/01/08 08:43:43;;;;;;;14.43;11.53;;;;;;;16.89;53.23;95167.53;5129763;28;20665;-49
2023/01/08 08:46:10;;;;;;;18.23;11.73;;;;;;;16.66;53.42;95154.44;5129797;28;20199;-45
2023/01/08 08:48:37;;;;;;;19.80;12.37;;;;;;;16.51;53.44;95167.22;5130345;28;20321;-46
2023/01/08 08:51:05;;;;;;;15.90;12.60;;;;;;;16.42;53.35;95161.25;5130318;28;20185;-47
2023/01/08 08:53:32;;;;;;;17.83;12.23;;;;;;;16.35;53.01;95155.09;5130084;28;20569;-46
2023/01/08 08:55:59;;;;;;;14.20;11.63;;;;;;;16.22;53.13;95160.75;5129784;28;20250;-49
2023/01/08 08:58:26;;;;;;;16.57;11.47;;;;;;;15.99;53.29;95160.56;5129658;28;20180;-47
2023/01/08 09:00:53;;;;;;;16.37;11.87;;;;;;;15.82;53.32;95163.28;5130257;28;20188;-47
2023/01/08 09:03:19;;;;;;;18.93;11.93;;;;;;;15.64;53.38;95156.47;5131671;27;20202;-47
2023/01/08 09:05:46;;;;;;;18.97;12.00;;;;;;;15.49;53.45;95158.00;5133963;27;20192;-49
2023/01/08 09:08:14;;;;;;;17.60;12.30;;;;;;;15.34;53.47;95155.22;5134650;27;20199;-44
2023/01/08 09:10:42;;;;;;;16.50;12.20;;;;;;;15.21;53.62;95157.41;5133848;27;20671;-44
2023/01/08 09:13:09;;;;;;;19.33;12.83;;;;;;;15.09;53.61;95145.75;5133893;27;20188;-45
2023/01/08 09:15:37;;;;;;;19.53;12.33;;;;;;;14.96;53.54;95149.56;5133882;27;20216;-46
2023/01/08 09:18:07;;;;;;;18.07;12.07;;;;;;;14.87;53.60;95149.69;5134747;27;20683;-47
2023/01/08 09:20:34;;;;;;;21.43;13.07;;;;;;;14.77;53.91;95142.88;5129301;27;20655;-43
2023/01/08 09:23:03;;;;;;;15.93;12.60;;;;;;;14.67;53.61;95139.56;5132626;27;20193;-43
2023/01/08 09:25:31;;;;;;;16.57;12.47;;;;;;;14.55;53.79;95127.94;5131646;27;20184;-45
2023/01/08 09:28:02;;;;;;;18.83;13.03;;;;;;;14.55;53.63;95127.94;5131397;27;20192;-45
2023/01/08 09:30:29;;;;;;;17.57;12.27;;;;;;;14.50;53.65;95135.28;5130888;27;20185;-45
2023/01/08 09:32:57;;;;;;;17.17;12.20;;;;;;;14.45;53.64;95128.00;5131605;27;20185;-45
2023/01/08 09:35:25;;;;;;;15.57;11.57;;;;;;;14.38;53.64;95127.00;5131503;27;20248;-50
2023/01/08 09:37:52;;;;;;;18.40;12.50;;;;;;;14.35;53.65;95127.28;5131575;27;20188;-45
2023/01/08 09:40:20;;;;;;;19.23;12.60;;;;;;;14.31;53.58;95120.81;5130889;27;20220;-47
2023/01/08 09:42:54;;;;;;;20.10;13.10;;;;;;;14.26;53.61;95121.28;5131226;27;20196;-46
2023/01/08 09:45:27;;;;;;;18.83;12.73;;;;;;;14.10;53.57;95102.31;5131787;27;20191;-47
2023/01/08 09:47:56;;;;;;;21.37;12.70;;;;;;;14.19;53.54;95112.53;5130761;27;20207;-46
2023/01/08 09:50:25;;;;;;;18.47;13.53;;;;;;;14.16;53.64;95107.69;5131363;27;20185;-44
2023/01/08 09:52:52;;;;;;;17.63;12.17;;;;;;;14.13;53.74;95097.69;5130855;27;20184;-44
2023/01/08 09:55:20;;;;;;;24.93;11.63;;;;;;;14.13;53.61;95089.19;5130615;27;20232;-43
2023/01/08 09:57:49;;;;;;;17.07;12.53;;;;;;;13.90;53.66;95050.25;5130747;27;20189;-44
2023/01/08 10:00:20;;;;;;;20.97;13.10;;;;;;;13.94;53.32;95054.16;5130848;27;20199;-45
2023/01/08 10:02:47;;;;;;;20.07;13.07;;;;;;;14.10;53.47;95076.63;5129555;27;20225;-44
2023/01/08 10:05:17;;;;;;;17.43;12.20;;;;;;;14.10;53.40;95077.41;5130105;27;20200;-48
2023/01/08 10:07:46;;;;;;;17.77;12.50;;;;;;;14.11;53.35;95080.78;5129750;27;20271;-47
2023/01/08 10:10:19;;;;;;;16.50;12.23;;;;;;;14.11;53.24;95084.16;5130974;27;20192;-44
2023/01/08 10:12:49;;;;;;;17.63;12.07;;;;;;;14.11;53.19;95076.44;5130160;27;20724;-45
2023/01/08 10:15:18;;;;;;;17.30;12.77;;;;;;;14.13;53.13;95071.19;5129697;27;20223;-45
2023/01/08 10:17:49;;;;;;;16.73;12.77;;;;;;;14.12;53.13;95065.22;5129590;27;20676;-48
2023/01/08 10:20:18;;;;;;;17.27;12.97;;;;;;;13.71;52.95;94999.84;5130013;27;20190;-45
2023/01/08 10:22:46;;;;;;;21.83;12.40;;;;;;;14.16;53.12;95055.41;5131813;27;20231;-45
2023/01/08 10:25:16;;;;;;;16.27;12.43;;;;;;;14.19;52.97;95053.38;5131616;27;20233;-46
2023/01/08 10:27:50;;;;;;;16.93;12.90;;;;;;;14.23;52.88;95053.88;5131652;27;20972;-46
2023/01/08 10:30:19;;;;;;;18.60;13.43;;;;;;;14.23;53.00;95044.38;5130699;27;20184;-49
2023/01/08 10:32:53;;;;;;;19.57;12.37;;;;;;;14.29;52.69;95040.38;5129173;27;20621;-46
2023/01/08 10:35:22;;;;;;;19.37;13.30;;;;;;;14.31;52.83;95039.28;5130122;27;20224;-47
2023/01/08 10:37:50;;;;;;;18.90;13.80;;;;;;;14.33;52.49;95031.41;5135159;27;20187;-46
2023/01/08 10:40:29;;;;;;;18.93;14.53;;;;;;;14.28;52.45;95013.88;5130633;27;20287;-49
2023/01/08 10:43:05;;;;;;;23.83;15.07;;;;;;;14.37;52.54;95027.56;5128522;27;20203;-44
2023/01/08 10:45:33;;;;;;;19.37;13.57;;;;;;;14.30;52.34;95006.00;5129855;27;20258;-50
2023/01/08 10:48:04;;;;;;;19.00;13.83;;;;;;;14.40;52.38;95004.13;5133741;27;20184;-46
2023/01/08 10:50:33;;;;;;;20.70;15.03;;;;;;;14.31;52.10;94992.19;5121412;27;20185;-46
2023/01/08 10:53:02;;;;;;;19.87;14.37;;;;;;;14.47;52.15;95005.13;5110594;28;20193;-45
2023/01/08 10:55:31;;;;;;;19.47;15.13;;;;;;;14.51;52.06;95009.03;5108724;28;20311;-47
2023/01/08 10:58:02;;;;;;;21.03;14.97;;;;;;;14.58;52.02;94996.34;5110306;28;20189;-45
2023/01/08 11:00:30;;;;;;;20.57;14.67;;;;;;;14.63;52.12;95013.91;5110310;28;20181;-50
2023/01/08 11:03:00;;;;;;;22.37;14.70;;;;;;;14.60;52.42;94994.44;5124336;27;20184;-45
2023/01/08 11:05:35;;;;;;;21.80;15.00;;;;;;;14.64;51.84;94995.75;5130471;27;20189;-46
2023/01/08 11:08:05;;;;;;;20.43;15.43;;;;;;;14.70;51.74;94997.69;5131693;27;20209;-46
2023/01/08 11:10:33;;;;;;;19.67;14.63;;;;;;;14.75;51.79;94994.66;5130287;27;20679;-45
2023/01/08 11:13:04;;;;;;;20.23;14.77;;;;;;;14.74;51.75;94993.84;5130440;27;20200;-48
2023/01/08 11:15:37;;;;;;;21.30;15.93;;;;;;;14.79;51.83;94995.94;5128944;27;20215;-45
2023/01/08 11:18:14;;;;;;;22.47;15.90;;;;;;;14.82;51.62;94994.84;5130541;27;20244;-49
2023/01/08 11:20:41;;;;;;;20.93;15.73;;;;;;;14.83;51.60;94989.53;5129508;27;20188;-44
2023/01/08 11:23:17;;;;;;;20.40;15.83;;;;;;;14.83;51.44;94989.53;5130413;27;20184;-46
2023/01/08 11:25:49;;;;;;;21.43;16.23;;;;;;;14.85;51.50;94984.22;5128351;27;20361;-51
2023/01/08 11:28:25;;;;;;;22.37;16.07;;;;;;;14.86;51.43;94989.22;5130088;27;20207;-46
2023/01/08 11:30:59;;;;;;;24.50;15.53;;;;;;;14.88;51.52;94991.63;5127236;27;20192;-47